<?xml version="1.0" encoding="utf-8"?>
<gpx xmlns:xsi="http://www.w3.org/2001/XMLSchema-instance" xmlns:xsd="http://www.w3.org/2001/XMLSchema" version="1.1" creator="Shapelink.com" xmlns="http://www.topografix.com/GPX/1/1" xmlns:gpxtpx="http://www.garmin.com/xmlschemas/TrackPointExtension/v1">
  <metadata>
    <name>Övrigt 2.56 km, 2019-05-11</name>
    <desc></desc>
    <author><name>Marian Moron</name></author> 
    <time>2019-05-11T20:45:47Z</time>
  </metadata>
  <trk>
    <name>Övrigt 2.56 km, 2019-05-11</name>
    <trkseg>
      <trkpt lat="51.229931485099" lon="4.458483651838">
        <ele>0</ele>
        <time>2019-05-11T20:45:47Z</time>
      </trkpt>
      <trkpt lat="51.229979345748" lon="4.458688254017">
        <ele>0</ele>
        <time>2019-05-11T20:46:04Z</time>
      </trkpt>
      <trkpt lat="51.230004994362" lon="4.458810797395">
        <ele>0</ele>
        <time>2019-05-11T20:46:19Z</time>
      </trkpt>
      <trkpt lat="51.230207081971" lon="4.458700240134">
        <ele>0</ele>
        <time>2019-05-11T20:46:47Z</time>
      </trkpt>
      <trkpt lat="51.230329206254" lon="4.458643746128">
        <ele>0</ele>
        <time>2019-05-11T20:47:03Z</time>
      </trkpt>
      <trkpt lat="51.23082826458" lon="4.458516425067">
        <ele>0</ele>
        <time>2019-05-11T20:47:29Z</time>
      </trkpt>
      <trkpt lat="51.231094641362" lon="4.458493626299">
        <ele>0</ele>
        <time>2019-05-11T20:48:19Z</time>
      </trkpt>
      <trkpt lat="51.231197319637" lon="4.45843067823">
        <ele>0</ele>
        <time>2019-05-11T20:48:30Z</time>
      </trkpt>
      <trkpt lat="51.231390354794" lon="4.458294304717">
        <ele>0</ele>
        <time>2019-05-11T20:48:57Z</time>
      </trkpt>
      <trkpt lat="51.231503594263" lon="4.458232362476">
        <ele>0</ele>
        <time>2019-05-11T20:49:14Z</time>
      </trkpt>
      <trkpt lat="51.231568889264" lon="4.458140999766">
        <ele>0</ele>
        <time>2019-05-11T20:50:02Z</time>
      </trkpt>
      <trkpt lat="51.231999383648" lon="4.457892057336">
        <ele>0</ele>
        <time>2019-05-11T20:50:35Z</time>
      </trkpt>
      <trkpt lat="51.232008519919" lon="4.457882250513">
        <ele>0</ele>
        <time>2019-05-11T20:50:36Z</time>
      </trkpt>
      <trkpt lat="51.232077586775" lon="4.45785819446">
        <ele>0</ele>
        <time>2019-05-11T20:50:43Z</time>
      </trkpt>
      <trkpt lat="51.232287301913" lon="4.457918208864">
        <ele>12.4</ele>
        <time>2019-05-11T20:51:07Z</time>
      </trkpt>
      <trkpt lat="51.232416802268" lon="4.457575556792">
        <ele>7.6</ele>
        <time>2019-05-11T20:51:21Z</time>
      </trkpt>
      <trkpt lat="51.232348489783" lon="4.457284453405">
        <ele>3</ele>
        <time>2019-05-11T20:51:37Z</time>
      </trkpt>
      <trkpt lat="51.232366846144" lon="4.457110193704">
        <ele>3</ele>
        <time>2019-05-11T20:51:46Z</time>
      </trkpt>
      <trkpt lat="51.232263581136" lon="4.456709287427">
        <ele>0</ele>
        <time>2019-05-11T20:52:05Z</time>
      </trkpt>
      <trkpt lat="51.232267185353" lon="4.456561933625">
        <ele>0</ele>
        <time>2019-05-11T20:52:18Z</time>
      </trkpt>
      <trkpt lat="51.232236842875" lon="4.456428996691">
        <ele>0</ele>
        <time>2019-05-11T20:52:24Z</time>
      </trkpt>
      <trkpt lat="51.232215720487" lon="4.456282481079">
        <ele>0</ele>
        <time>2019-05-11T20:52:37Z</time>
      </trkpt>
      <trkpt lat="51.23223223283" lon="4.45601585284">
        <ele>0</ele>
        <time>2019-05-11T20:52:57Z</time>
      </trkpt>
      <trkpt lat="51.232231646097" lon="4.455884508467">
        <ele>3.8</ele>
        <time>2019-05-11T20:53:14Z</time>
      </trkpt>
      <trkpt lat="51.232173810987" lon="4.455704213798">
        <ele>7</ele>
        <time>2019-05-11T20:53:30Z</time>
      </trkpt>
      <trkpt lat="51.232113712764" lon="4.455571109226">
        <ele>5.6</ele>
        <time>2019-05-11T20:53:39Z</time>
      </trkpt>
      <trkpt lat="51.232045987012" lon="4.4551139604">
        <ele>2</ele>
        <time>2019-05-11T20:54:04Z</time>
      </trkpt>
      <trkpt lat="51.231941213262" lon="4.454630576227">
        <ele>0</ele>
        <time>2019-05-11T20:54:37Z</time>
      </trkpt>
      <trkpt lat="51.231870721483" lon="4.454151131547">
        <ele>0</ele>
        <time>2019-05-11T20:55:29Z</time>
      </trkpt>
      <trkpt lat="51.23181984335" lon="4.453823818352">
        <ele>0</ele>
        <time>2019-05-11T20:55:44Z</time>
      </trkpt>
      <trkpt lat="51.231809868889" lon="4.453764558319">
        <ele>0</ele>
        <time>2019-05-11T20:55:47Z</time>
      </trkpt>
      <trkpt lat="51.231765277181" lon="4.453672357419">
        <ele>0</ele>
        <time>2019-05-11T20:56:05Z</time>
      </trkpt>
      <trkpt lat="51.231742897508" lon="4.453621479286">
        <ele>0</ele>
        <time>2019-05-11T20:56:10Z</time>
      </trkpt>
      <trkpt lat="51.231695036859" lon="4.453229206366">
        <ele>0</ele>
        <time>2019-05-11T20:56:27Z</time>
      </trkpt>
      <trkpt lat="51.231650445151" lon="4.452985460714">
        <ele>0</ele>
        <time>2019-05-11T20:56:38Z</time>
      </trkpt>
      <trkpt lat="51.231604093244" lon="4.452877920937">
        <ele>0</ele>
        <time>2019-05-11T20:56:46Z</time>
      </trkpt>
      <trkpt lat="51.231531254533" lon="4.452490090424">
        <ele>0</ele>
        <time>2019-05-11T20:57:04Z</time>
      </trkpt>
      <trkpt lat="51.231478197106" lon="4.452094716201">
        <ele>0</ele>
        <time>2019-05-11T20:57:31Z</time>
      </trkpt>
      <trkpt lat="51.231415249037" lon="4.451748459912">
        <ele>0</ele>
        <time>2019-05-11T20:57:54Z</time>
      </trkpt>
      <trkpt lat="51.231293208573" lon="4.451058126628">
        <ele>0</ele>
        <time>2019-05-11T20:58:21Z</time>
      </trkpt>
      <trkpt lat="51.231260519163" lon="4.450827372921">
        <ele>0</ele>
        <time>2019-05-11T20:58:33Z</time>
      </trkpt>
      <trkpt lat="51.231257082584" lon="4.450773393485">
        <ele>0</ele>
        <time>2019-05-11T20:58:36Z</time>
      </trkpt>
      <trkpt lat="51.23129765098" lon="4.450731232528">
        <ele>0</ele>
        <time>2019-05-11T20:58:41Z</time>
      </trkpt>
      <trkpt lat="51.231266805588" lon="4.450607431865">
        <ele>0</ele>
        <time>2019-05-11T20:58:54Z</time>
      </trkpt>
      <trkpt lat="51.231220872776" lon="4.450562169605">
        <ele>0</ele>
        <time>2019-05-11T20:58:58Z</time>
      </trkpt>
      <trkpt lat="51.231199666569" lon="4.450558733026">
        <ele>0</ele>
        <time>2019-05-11T20:59:01Z</time>
      </trkpt>
      <trkpt lat="51.230737991517" lon="4.450668535916">
        <ele>0</ele>
        <time>2019-05-11T20:59:33Z</time>
      </trkpt>
      <trkpt lat="51.230344042217" lon="4.450787558896">
        <ele>0</ele>
        <time>2019-05-11T21:00:09Z</time>
      </trkpt>
      <trkpt lat="51.230195598768" lon="4.450889650438">
        <ele>0</ele>
        <time>2019-05-11T21:00:33Z</time>
      </trkpt>
      <trkpt lat="51.229958055722" lon="4.450965590452">
        <ele>0</ele>
        <time>2019-05-11T21:01:09Z</time>
      </trkpt>
      <trkpt lat="51.229898544232" lon="4.450994424188">
        <ele>0</ele>
        <time>2019-05-11T21:01:15Z</time>
      </trkpt>
      <trkpt lat="51.229660498272" lon="4.451124008362">
        <ele>1.6</ele>
        <time>2019-05-11T21:01:43Z</time>
      </trkpt>
      <trkpt lat="51.229841631131" lon="4.45160864982">
        <ele>5.4</ele>
        <time>2019-05-11T21:02:26Z</time>
      </trkpt>
      <trkpt lat="51.229897622223" lon="4.451959264697">
        <ele>3.8</ele>
        <time>2019-05-11T21:02:52Z</time>
      </trkpt>
      <trkpt lat="51.230036510306" lon="4.452660913546">
        <ele>5.6</ele>
        <time>2019-05-11T21:03:26Z</time>
      </trkpt>
      <trkpt lat="51.230144888273" lon="4.453361724205">
        <ele>4.2</ele>
        <time>2019-05-11T21:03:58Z</time>
      </trkpt>
      <trkpt lat="51.230263575977" lon="4.454057338086">
        <ele>2.2</ele>
        <time>2019-05-11T21:04:30Z</time>
      </trkpt>
      <trkpt lat="51.230319734707" lon="4.454504763908">
        <ele>0.2</ele>
        <time>2019-05-11T21:04:59Z</time>
      </trkpt>
      <trkpt lat="51.230247147453" lon="4.454649854597">
        <ele>1</ele>
        <time>2019-05-11T21:05:10Z</time>
      </trkpt>
      <trkpt lat="51.230212446387" lon="4.455043971535">
        <ele>0</ele>
        <time>2019-05-11T21:05:32Z</time>
      </trkpt>
      <trkpt lat="51.230614861406" lon="4.455296602001">
        <ele>0</ele>
        <time>2019-05-11T21:06:04Z</time>
      </trkpt>
      <trkpt lat="51.231021383556" lon="4.455661130832">
        <ele>0</ele>
        <time>2019-05-11T21:06:35Z</time>
      </trkpt>
      <trkpt lat="51.231108806773" lon="4.4558431857">
        <ele>0</ele>
        <time>2019-05-11T21:06:57Z</time>
      </trkpt>
      <trkpt lat="51.231392617907" lon="4.456090284112">
        <ele>0</ele>
        <time>2019-05-11T21:07:33Z</time>
      </trkpt>
      <trkpt lat="51.231294046763" lon="4.456449364708">
        <ele>2</ele>
        <time>2019-05-11T21:07:57Z</time>
      </trkpt>
      <trkpt lat="51.231240989336" lon="4.457170124289">
        <ele>2.4</ele>
        <time>2019-05-11T21:08:27Z</time>
      </trkpt>
      <trkpt lat="51.23120209732" lon="4.457544627581">
        <ele>0</ele>
        <time>2019-05-11T21:08:45Z</time>
      </trkpt>
      <trkpt lat="51.231193631601" lon="4.458053744187">
        <ele>0</ele>
        <time>2019-05-11T21:09:19Z</time>
      </trkpt>
      <trkpt lat="51.231208132288" lon="4.458186513483">
        <ele>0</ele>
        <time>2019-05-11T21:09:26Z</time>
      </trkpt>
      <trkpt lat="51.231262949914" lon="4.458508378443">
        <ele>0.4</ele>
        <time>2019-05-11T21:09:43Z</time>
      </trkpt>
      <trkpt lat="51.231178208905" lon="4.458654977874">
        <ele>0.6</ele>
        <time>2019-05-11T21:09:53Z</time>
      </trkpt>
      <trkpt lat="51.23094812575" lon="4.458737791046">
        <ele>0</ele>
        <time>2019-05-11T21:10:21Z</time>
      </trkpt>
      <trkpt lat="51.230529114569" lon="4.458815239802">
        <ele>0.2</ele>
        <time>2019-05-11T21:10:51Z</time>
      </trkpt>
      <trkpt lat="51.230507992181" lon="4.45916493267">
        <ele>2.8</ele>
        <time>2019-05-11T21:11:35Z</time>
      </trkpt>
      <trkpt lat="51.230549817862" lon="4.459370540677">
        <ele>1.4</ele>
        <time>2019-05-11T21:11:54Z</time>
      </trkpt>
      <trkpt lat="51.230564821463" lon="4.459481433214">
        <ele>1.4</ele>
        <time>2019-05-11T21:12:00Z</time>
      </trkpt>
      <trkpt lat="51.230565743472" lon="4.45962928993">
        <ele>1.4</ele>
        <time>2019-05-11T21:12:10Z</time>
      </trkpt>
      <trkpt lat="51.230652496137" lon="4.45973490187">
        <ele>0</ele>
        <time>2019-05-11T21:12:25Z</time>
      </trkpt>
      <trkpt lat="51.230861624542" lon="4.459651250508">
        <ele>0</ele>
        <time>2019-05-11T21:13:16Z</time>
      </trkpt>
      <trkpt lat="51.23112163108" lon="4.459919219851">
        <ele>3.6</ele>
        <time>2019-05-11T21:13:59Z</time>
      </trkpt>
      <trkpt lat="51.231162870028" lon="4.46010202909">
        <ele>0.4</ele>
        <time>2019-05-11T21:14:12Z</time>
      </trkpt>
      <trkpt lat="51.231306200518" lon="4.460694461782">
        <ele>17.8</ele>
        <time>2019-05-11T21:14:42Z</time>
      </trkpt>
      <trkpt lat="51.23128507813" lon="4.461021942615">
        <ele>15.2</ele>
        <time>2019-05-11T21:15:00Z</time>
      </trkpt>
      <trkpt lat="51.231340147213" lon="4.461185389665">
        <ele>9</ele>
        <time>2019-05-11T21:15:16Z</time>
      </trkpt>
      <trkpt lat="51.231343835249" lon="4.461360655194">
        <ele>5.2</ele>
        <time>2019-05-11T21:15:30Z</time>
      </trkpt>
      <trkpt lat="51.231338554652" lon="4.461510775023">
        <ele>3</ele>
        <time>2019-05-11T21:15:48Z</time>
      </trkpt>
      <trkpt lat="51.231474844346" lon="4.461612950384">
        <ele>5.8</ele>
        <time>2019-05-11T21:16:53Z</time>
      </trkpt>
      <trkpt lat="51.231230009047" lon="4.461655530436">
        <ele>2.2</ele>
        <time>2019-05-11T21:17:28Z</time>
      </trkpt>
      <trkpt lat="51.230897163798" lon="4.46126878957">
        <ele>1.6</ele>
        <time>2019-05-11T21:18:05Z</time>
      </trkpt>
      <trkpt lat="51.230759197724" lon="4.460601003597">
        <ele>4.6</ele>
        <time>2019-05-11T21:18:39Z</time>
      </trkpt>
      <trkpt lat="51.230615448139" lon="4.459962973369">
        <ele>0.4</ele>
        <time>2019-05-11T21:19:21Z</time>
      </trkpt>
      <trkpt lat="51.230561301065" lon="4.459918381661">
        <ele>0</ele>
        <time>2019-05-11T21:19:25Z</time>
      </trkpt>
      <trkpt lat="51.230434985832" lon="4.459802208527">
        <ele>0</ele>
        <time>2019-05-11T21:19:35Z</time>
      </trkpt>
      <trkpt lat="51.23043850623" lon="4.459344892063">
        <ele>3.4</ele>
        <time>2019-05-11T21:20:00Z</time>
      </trkpt>
      <trkpt lat="51.23032115963" lon="4.458974831178">
        <ele>4.2</ele>
        <time>2019-05-11T21:20:25Z</time>
      </trkpt>
      <trkpt lat="51.229982363232" lon="4.459049346269">
        <ele>0</ele>
        <time>2019-05-11T21:20:58Z</time>
      </trkpt>
      <trkpt lat="51.229915894765" lon="4.459069965743">
        <ele>0</ele>
        <time>2019-05-11T21:21:03Z</time>
      </trkpt>
      <trkpt lat="51.229848671927" lon="4.459005592751">
        <ele>0</ele>
        <time>2019-05-11T21:21:12Z</time>
      </trkpt>
      <trkpt lat="51.229856550913" lon="4.458967538925">
        <ele>0</ele>
        <time>2019-05-11T21:21:14Z</time>
      </trkpt>
      <trkpt lat="51.229902483725" lon="4.45889503549">
        <ele>0</ele>
        <time>2019-05-11T21:21:19Z</time>
      </trkpt>
      <trkpt lat="51.229914386023" lon="4.458857568397">
        <ele>0</ele>
        <time>2019-05-11T21:21:21Z</time>
      </trkpt>
      <trkpt lat="51.229928802891" lon="4.458830411041">
        <ele>0</ele>
        <time>2019-05-11T21:21:23Z</time>
      </trkpt>
      <trkpt lat="51.229876416016" lon="4.458195901211">
        <ele>3.4</ele>
        <time>2019-05-11T21:21:54Z</time>
      </trkpt>
      <trkpt lat="51.229827968634" lon="4.457952658473">
        <ele>5.6</ele>
        <time>2019-05-11T21:22:33Z</time>
      </trkpt>
      <trkpt lat="51.22966234229" lon="4.457976714526">
        <ele>6.8</ele>
        <time>2019-05-11T21:22:52Z</time>
      </trkpt>
    </trkseg>
  </trk>
</gpx>